Time;durP1;ratioP1;P1;durP2;ratioP2;P2;SDS_P1;SDS_P2;PMS_P1;PMS_P2;Temp;Humidity;BMP_temperature;BMP_pressure;BME280_temperature;BME280_humidity;BME280_pressure;Samples;Min_cycle;Max_cycle;Signal;HPM_P1;HPM_P2
2023/08/17 00:02:05;;;;;;;14.30;3.65;;;;;;;19.35;100.00;101810.28;5073821;28;20071;-66
2023/08/17 00:04:30;;;;;;;13.50;3.65;;;;;;;19.37;100.00;101800.44;5073837;28;20059;-66
2023/08/17 00:06:55;;;;;;;14.45;3.90;;;;;;;19.32;100.00;101802.28;5073652;28;20067;-66
2023/08/17 00:09:22;;;;;;;12.48;3.80;;;;;;;19.27;100.00;101793.47;5069648;28;20024;-66
2023/08/17 00:11:47;;;;;;;12.13;3.80;;;;;;;19.27;100.00;101802.38;5072291;28;20564;-66
2023/08/17 00:14:12;;;;;;;12.50;3.80;;;;;;;19.23;100.00;101791.72;5073565;28;20043;-66
2023/08/17 00:16:38;;;;;;;12.68;3.60;;;;;;;19.24;100.00;101791.72;5073443;28;20024;-69
2023/08/17 00:19:03;;;;;;;11.25;3.88;;;;;;;19.22;100.00;101796.22;5073479;28;20029;-68
2023/08/17 00:21:29;;;;;;;14.23;4.00;;;;;;;19.08;100.00;101785.72;5073682;28;20036;-69
2023/08/17 00:23:54;;;;;;;14.38;3.90;;;;;;;19.01;100.00;101786.72;5073703;28;20017;-68
2023/08/17 00:26:20;;;;;;;13.68;4.05;;;;;;;18.86;100.00;101782.50;5073285;28;20448;-69
2023/08/17 00:28:45;;;;;;;12.93;3.83;;;;;;;18.86;100.00;101784.22;5073311;28;20037;-68
2023/08/17 00:31:10;;;;;;;11.77;3.90;;;;;;;18.81;100.00;101787.00;5073300;28;20029;-69
2023/08/17 00:33:36;;;;;;;15.63;4.05;;;;;;;18.76;100.00;101789.75;5073257;28;20387;-70
2023/08/17 00:36:01;;;;;;;14.55;3.88;;;;;;;18.67;100.00;101779.19;5073094;28;20360;-69
2023/08/17 00:38:26;;;;;;;15.02;4.10;;;;;;;18.58;100.00;101779.28;5073300;28;20047;-69
2023/08/17 00:40:52;;;;;;;12.43;3.83;;;;;;;18.49;100.00;101779.44;5073141;28;20111;-69
2023/08/17 00:43:17;;;;;;;11.77;3.78;;;;;;;18.47;100.00;101788.34;5073001;28;20064;-69
2023/08/17 00:45:45;;;;;;;14.30;4.00;;;;;;;18.44;100.00;101790.22;5073487;28;20032;-69
2023/08/17 00:48:11;;;;;;;15.10;4.10;;;;;;;18.42;100.00;101792.00;5072834;28;20025;-69
2023/08/17 00:50:37;;;;;;;14.98;4.20;;;;;;;18.34;100.00;101786.75;5072931;28;20155;-68
2023/08/17 00:53:04;;;;;;;12.00;3.83;;;;;;;18.31;100.00;101789.47;5072809;28;20053;-69
2023/08/17 00:55:29;;;;;;;11.13;3.78;;;;;;;18.33;100.00;101789.47;5072884;28;20025;-69
2023/08/17 00:57:56;;;;;;;14.50;3.80;;;;;;;18.35;100.00;101790.31;5072872;28;20723;-69
2023/08/17 01:00:23;;;;;;;14.20;3.80;;;;;;;18.36;100.00;101803.66;5068978;28;20033;-66
2023/08/17 01:02:49;;;;;;;12.35;3.60;;;;;;;18.35;100.00;101799.25;5072737;28;20107;-66
2023/08/17 01:05:14;;;;;;;13.65;3.63;;;;;;;18.39;100.00;101797.41;5072786;28;20514;-66
2023/08/17 01:07:40;;;;;;;12.55;3.78;;;;;;;18.44;100.00;101803.59;5072820;28;20467;-65
2023/08/17 01:10:07;;;;;;;13.27;3.83;;;;;;;18.43;100.00;101802.69;5072735;28;20387;-66
2023/08/17 01:13:03;;;;;;;11.85;3.92;;;;;;;18.51;100.00;101810.63;5072567;28;20069;-65
2023/08/17 01:15:36;;;;;;;14.63;3.80;;;;;;;18.50;100.00;101808.84;5069068;28;20037;-66
2023/08/17 01:18:17;;;;;;;15.00;3.80;;;;;;;18.45;100.00;101798.22;5072631;28;20036;-66
2023/08/17 01:20:44;;;;;;;12.27;3.78;;;;;;;18.42;100.00;101795.59;5072816;28;20429;-66
2023/08/17 01:23:09;;;;;;;12.68;3.72;;;;;;;18.37;100.00;101792.06;5072563;28;20029;-66
2023/08/17 01:25:36;;;;;;;14.88;4.00;;;;;;;18.31;100.00;101792.16;5072540;28;20369;-66
2023/08/17 01:28:02;;;;;;;14.52;3.92;;;;;;;18.31;100.00;101801.97;5072729;28;20032;-66
2023/08/17 01:30:30;;;;;;;13.82;4.00;;;;;;;18.31;100.00;101789.47;5072699;28;20031;-66
2023/08/17 01:33:03;;;;;;;14.27;3.92;;;;;;;18.28;100.00;101792.19;5076603;28;20059;-65
2023/08/17 01:35:40;;;;;;;13.55;4.07;;;;;;;18.28;100.00;101794.88;5073389;28;20022;-65
2023/08/17 01:38:11;;;;;;;14.77;4.07;;;;;;;18.24;100.00;101787.78;5076722;28;20112;-66
2023/08/17 01:40:37;;;;;;;16.55;4.22;;;;;;;18.17;100.00;101780.72;5076677;28;20048;-66
2023/08/17 01:43:03;;;;;;;14.07;4.18;;;;;;;18.17;100.00;101786.09;5076481;28;20056;-66
2023/08/17 01:45:29;;;;;;;14.95;4.18;;;;;;;18.13;100.00;101779.91;5076604;28;20033;-66
2023/08/17 01:47:57;;;;;;;12.13;3.88;;;;;;;18.10;100.00;101780.81;5076444;28;20099;-66
2023/08/17 01:50:22;;;;;;;14.50;4.05;;;;;;;18.13;100.00;101779.91;5058361;28;20052;-65
2023/08/17 01:52:50;;;;;;;14.30;4.20;;;;;;;18.11;100.00;101779.03;5076225;28;20471;-66
2023/08/17 01:55:15;;;;;;;13.82;4.20;;;;;;;18.04;100.00;101771.97;5076202;28;20047;-66
2023/08/17 01:57:40;;;;;;;16.90;4.30;;;;;;;18.04;100.00;101780.00;5076431;28;20029;-66
2023/08/17 02:00:07;;;;;;;11.95;3.83;;;;;;;18.04;100.00;101783.56;5076407;28;20028;-67
2023/08/17 02:02:33;;;;;;;14.43;4.25;;;;;;;17.97;100.00;101773.84;5076078;28;20380;-69
2023/08/17 02:04:58;;;;;;;14.30;4.13;;;;;;;17.93;100.00;101775.66;5076046;28;20035;-68
2023/08/17 02:07:23;;;;;;;15.70;4.15;;;;;;;17.90;100.00;101775.69;5076312;28;20111;-69
2023/08/17 02:09:48;;;;;;;14.35;4.15;;;;;;;17.83;100.00;101779.31;5075891;28;20027;-70
2023/08/17 02:12:14;;;;;;;14.63;4.13;;;;;;;17.87;100.00;101780.19;5074628;28;20033;-69
2023/08/17 02:14:39;;;;;;;17.23;4.47;;;;;;;17.92;100.00;101781.91;5074695;28;20040;-69
2023/08/17 02:17:05;;;;;;;15.68;4.40;;;;;;;17.89;100.00;101781.03;5075789;28;20093;-70
2023/08/17 02:19:31;;;;;;;13.93;3.90;;;;;;;17.85;100.00;101781.97;5075801;28;20033;-69
2023/08/17 02:21:56;;;;;;;14.85;4.30;;;;;;;17.85;100.00;101788.19;5075960;28;20085;-69
2023/08/17 02:24:22;;;;;;;14.45;4.18;;;;;;;17.84;100.00;101778.41;5075631;28;20028;-69
2023/08/17 02:26:47;;;;;;;17.02;4.43;;;;;;;17.80;100.00;101778.47;5075615;28;20031;-69
2023/08/17 02:29:13;;;;;;;15.25;4.20;;;;;;;17.89;100.00;101783.72;5075801;28;20040;-69
2023/08/17 02:31:38;;;;;;;15.55;4.10;;;;;;;17.83;100.00;101781.97;5075520;28;20037;-69
2023/08/17 02:34:05;;;;;;;12.73;3.90;;;;;;;17.78;100.00;101782.03;5075966;28;20096;-68
2023/08/17 02:36:31;;;;;;;16.33;3.83;;;;;;;17.77;100.00;101782.94;5075476;28;20051;-69
2023/08/17 02:38:56;;;;;;;14.60;3.90;;;;;;;17.68;100.00;101780.38;5075468;28;20428;-69
2023/08/17 02:41:22;;;;;;;14.77;4.05;;;;;;;17.64;100.00;101777.75;5075454;28;20059;-69
2023/08/17 02:43:47;;;;;;;16.90;4.10;;;;;;;17.71;100.00;101780.34;5075405;28;20086;-68
2023/08/17 02:46:13;;;;;;;13.73;4.10;;;;;;;17.71;100.00;101780.34;5075191;28;20035;-69
2023/08/17 02:48:38;;;;;;;16.35;3.92;;;;;;;17.71;100.00;101769.63;5075520;28;20024;-69
2023/08/17 02:51:03;;;;;;;13.23;3.95;;;;;;;17.70;100.00;101772.34;5075030;28;20082;-66
2023/08/17 02:53:29;;;;;;;15.80;4.00;;;;;;;17.76;100.00;101767.78;5075005;28;20047;-66
2023/08/17 02:55:54;;;;;;;13.32;3.72;;;;;;;17.75;100.00;101771.38;5075368;28;20517;-66
2023/08/17 02:58:19;;;;;;;14.55;3.78;;;;;;;17.76;100.00;101770.47;5075314;28;20025;-66
2023/08/17 03:00:45;;;;;;;14.07;4.00;;;;;;;17.79;100.00;101769.53;5074947;28;20475;-66
2023/08/17 03:03:10;;;;;;;14.02;3.97;;;;;;;17.84;100.00;101767.72;5075202;28;20479;-66
2023/08/17 03:05:35;;;;;;;10.93;3.63;;;;;;;17.86;100.00;101767.69;5074910;28;20592;-65
2023/08/17 03:08:01;;;;;;;13.57;3.75;;;;;;;17.82;100.00;101766.84;5075123;28;20079;-66
2023/08/17 03:10:26;;;;;;;13.70;3.78;;;;;;;17.81;100.00;101769.53;5074998;28;20029;-66
2023/08/17 03:12:52;;;;;;;14.52;3.67;;;;;;;17.78;100.00;101763.31;5074620;28;20435;-66
2023/08/17 03:15:17;;;;;;;13.43;3.50;;;;;;;17.76;100.00;101766.91;5074961;28;20032;-66
2023/08/17 03:17:43;;;;;;;12.43;3.70;;;;;;;17.71;100.00;101764.28;5074712;28;20158;-66
2023/08/17 03:20:08;;;;;;;13.40;3.70;;;;;;;17.71;100.00;101768.75;5074632;28;20037;-66
2023/08/17 03:22:34;;;;;;;13.10;3.60;;;;;;;17.69;100.00;101768.78;5074905;28;20495;-66
2023/08/17 03:25:00;;;;;;;11.30;3.65;;;;;;;17.79;100.00;101761.53;5074383;28;20085;-66
2023/08/17 03:27:25;;;;;;;13.57;4.13;;;;;;;17.71;100.00;101764.28;5074773;28;20032;-66
2023/08/17 03:29:51;;;;;;;13.55;4.10;;;;;;;17.70;100.00;101757.16;5074933;28;20438;-66
2023/08/17 03:32:16;;;;;;;15.18;4.50;;;;;;;17.61;100.00;101757.28;5074301;28;20028;-66
2023/08/17 03:34:42;;;;;;;15.15;4.40;;;;;;;17.62;100.00;101755.47;5074415;28;20056;-66
2023/08/17 03:37:07;;;;;;;13.60;4.30;;;;;;;17.59;100.00;101757.28;5074732;28;20025;-66
2023/08/17 03:39:32;;;;;;;15.30;4.30;;;;;;;17.67;100.00;101765.22;5074269;28;20056;-66
2023/08/17 03:41:58;;;;;;;13.85;4.20;;;;;;;17.59;100.00;101759.06;5074334;28;20494;-66
2023/08/17 03:44:23;;;;;;;16.33;4.47;;;;;;;17.60;100.00;101755.50;5070141;28;20033;-65
2023/08/17 03:46:48;;;;;;;14.63;4.43;;;;;;;17.57;100.00;101758.19;5074113;28;20028;-66
2023/08/17 03:49:14;;;;;;;16.08;4.45;;;;;;;17.60;100.00;101758.16;5074438;28;20071;-66
2023/08/17 03:51:40;;;;;;;10.63;4.00;;;;;;;17.56;100.00;101764.44;5073764;28;20064;-66
2023/08/17 03:54:05;;;;;;;14.73;4.20;;;;;;;17.57;100.00;101763.53;5072306;28;20115;-66
2023/08/17 03:56:31;;;;;;;15.68;4.35;;;;;;;17.51;100.00;101763.63;5074097;28;20074;-66
2023/08/17 03:58:56;;;;;;;15.30;4.20;;;;;;;17.49;100.00;101762.72;5073954;28;20025;-65
2023/08/17 04:01:21;;;;;;;16.08;4.18;;;;;;;17.46;100.00;101770.78;5073811;28;20472;-66
2023/08/17 04:03:47;;;;;;;13.82;4.35;;;;;;;17.45;100.00;101772.56;5073926;28;20112;-65
2023/08/17 04:06:12;;;;;;;11.57;4.03;;;;;;;17.43;100.00;101777.94;5073747;28;20025;-66
2023/08/17 04:08:38;;;;;;;16.38;4.30;;;;;;;17.38;100.00;101774.41;5073595;28;20060;-65
2023/08/17 04:11:04;;;;;;;15.32;4.22;;;;;;;17.40;100.00;101774.38;5072439;28;20035;-65
2023/08/17 04:13:30;;;;;;;15.48;4.30;;;;;;;17.35;100.00;101776.25;5073636;28;20025;-65
2023/08/17 04:15:55;;;;;;;14.55;4.35;;;;;;;17.30;100.00;101778.03;5073578;28;20086;-65
2023/08/17 04:18:21;;;;;;;14.85;4.28;;;;;;;17.30;100.00;101786.06;5073708;28;20025;-65
2023/08/17 04:20:46;;;;;;;16.60;4.35;;;;;;;17.25;100.00;101780.75;5073424;28;20036;-66
2023/08/17 04:23:11;;;;;;;15.88;4.40;;;;;;;17.20;100.00;101787.94;5073402;28;20380;-65
2023/08/17 04:25:36;;;;;;;13.57;4.20;;;;;;;17.18;100.00;101785.28;5073577;28;20029;-66
2023/08/17 04:28:02;;;;;;;16.42;4.57;;;;;;;17.08;100.00;101789.81;5073353;28;20024;-65
2023/08/17 04:30:27;;;;;;;16.23;4.50;;;;;;;17.10;100.00;101787.13;5073454;28;20028;-65
2023/08/17 04:32:53;;;;;;;15.35;4.25;;;;;;;17.17;100.00;101798.63;5073091;28;20036;-65
2023/08/17 04:35:21;;;;;;;15.35;4.10;;;;;;;17.12;100.00;101793.34;5073067;28;20033;-66
2023/08/17 04:37:47;;;;;;;14.65;4.60;;;;;;;17.05;100.00;101795.19;5073355;28;20036;-65
2023/08/17 04:40:13;;;;;;;15.45;4.20;;;;;;;17.08;100.00;101791.56;5073056;28;20041;-65
2023/08/17 04:42:39;;;;;;;17.23;4.50;;;;;;;17.02;100.00;101796.97;5073025;28;20082;-65
2023/08/17 04:45:04;;;;;;;15.98;4.40;;;;;;;16.99;100.00;101797.88;5073232;28;20025;-65
2023/08/17 04:47:30;;;;;;;14.35;4.40;;;;;;;16.99;100.00;101795.19;5072990;28;20395;-68
2023/08/17 04:49:55;;;;;;;16.00;4.47;;;;;;;16.99;100.00;101792.53;5073002;28;20103;-69
2023/08/17 04:52:21;;;;;;;15.65;4.30;;;;;;;17.01;100.00;101793.44;5072662;28;20091;-68
2023/08/17 04:54:46;;;;;;;15.88;4.53;;;;;;;17.05;100.00;101794.28;5072904;28;20108;-67
2023/08/17 04:57:11;;;;;;;16.05;4.50;;;;;;;17.00;100.00;101786.31;5072862;28;20032;-68
2023/08/17 04:59:37;;;;;;;15.73;4.30;;;;;;;17.04;100.00;101792.53;5072943;28;20111;-69
2023/08/17 05:02:02;;;;;;;14.68;4.60;;;;;;;17.02;100.00;101786.28;5073085;28;20083;-68
2023/08/17 05:04:30;;;;;;;15.85;4.47;;;;;;;17.08;100.00;101784.47;5072729;28;20391;-68
2023/08/17 05:06:56;;;;;;;17.20;5.07;;;;;;;17.07;100.00;101788.03;5068340;28;20037;-68
2023/08/17 05:09:21;;;;;;;12.98;3.97;;;;;;;17.12;100.00;101788.00;5072786;28;20029;-68
2023/08/17 05:11:46;;;;;;;15.10;4.20;;;;;;;17.12;100.00;101784.44;5072531;28;20028;-68
2023/08/17 05:14:12;;;;;;;15.55;4.20;;;;;;;17.15;100.00;101792.44;5072855;28;20070;-69
2023/08/17 05:16:37;;;;;;;13.68;4.15;;;;;;;17.14;100.00;101787.97;5071385;28;20048;-68
2023/08/17 05:19:03;;;;;;;14.85;4.15;;;;;;;17.18;100.00;101785.28;5072828;28;20391;-68
2023/08/17 05:21:29;;;;;;;15.80;4.30;;;;;;;17.27;100.00;101791.44;5072942;28;20077;-69
2023/08/17 05:23:55;;;;;;;14.85;4.30;;;;;;;17.18;100.00;101779.94;5072518;28;20021;-69
2023/08/17 05:26:21;;;;;;;13.10;4.10;;;;;;;17.20;100.00;101786.16;5072754;28;20043;-67
2023/08/17 05:28:47;;;;;;;12.18;3.92;;;;;;;17.25;100.00;101786.09;5072477;28;20514;-68
2023/08/17 05:31:12;;;;;;;13.98;4.15;;;;;;;17.29;100.00;101779.84;5072648;28;20033;-68
2023/08/17 05:33:40;;;;;;;15.32;4.40;;;;;;;17.28;100.00;101785.22;5072722;28;20529;-65
2023/08/17 05:36:06;;;;;;;13.93;3.90;;;;;;;17.23;100.00;101780.78;5072434;28;20036;-65
2023/08/17 05:38:31;;;;;;;15.13;4.20;;;;;;;17.24;100.00;101781.66;5072402;28;20483;-65
2023/08/17 05:40:57;;;;;;;13.65;4.35;;;;;;;17.28;100.00;101780.72;5072599;28;20025;-66
2023/08/17 05:43:23;;;;;;;16.73;4.40;;;;;;;17.30;100.00;101781.63;5072349;28;20028;-65
2023/08/17 05:45:49;;;;;;;17.83;4.25;;;;;;;17.46;100.00;101784.13;5072631;28;20025;-65
2023/08/17 05:48:14;;;;;;;16.30;4.18;;;;;;;17.45;100.00;101788.59;5072462;28;20031;-66
2023/08/17 05:50:43;;;;;;;13.85;4.35;;;;;;;17.48;100.00;101787.69;5070443;28;20051;-65
2023/08/17 05:53:08;;;;;;;13.68;4.25;;;;;;;17.54;100.00;101787.63;5071421;28;20051;-65
2023/08/17 05:55:34;;;;;;;15.60;4.50;;;;;;;17.65;100.00;101796.44;5067975;28;20040;-65
2023/08/17 05:57:59;;;;;;;14.55;4.30;;;;;;;17.78;100.00;101798.09;5071939;28;20025;-65
2023/08/17 06:00:25;;;;;;;17.73;4.60;;;;;;;17.95;100.00;101794.38;5071506;28;20035;-65
2023/08/17 06:02:51;;;;;;;15.02;4.30;;;;;;;18.07;100.00;101799.59;5072287;28;20480;-64
2023/08/17 06:05:17;;;;;;;14.18;4.60;;;;;;;18.18;100.00;101801.25;5072058;28;20032;-65
2023/08/17 06:07:42;;;;;;;16.50;4.60;;;;;;;18.33;100.00;101798.34;5071955;28;20074;-64
2023/08/17 06:10:09;;;;;;;15.02;4.50;;;;;;;18.31;100.00;101807.34;5072172;28;20040;-65
2023/08/17 06:12:34;;;;;;;15.77;4.57;;;;;;;18.43;100.00;101804.47;5071513;28;20034;-65
2023/08/17 06:15:02;;;;;;;14.85;4.30;;;;;;;18.38;100.00;101815.25;5072113;28;20115;-65
2023/08/17 06:17:28;;;;;;;14.90;4.88;;;;;;;18.34;100.00;101813.53;5074093;28;20020;-67
2023/08/17 06:19:53;;;;;;;16.23;4.45;;;;;;;18.31;100.00;101810.88;5075552;28;20029;-67
2023/08/17 06:22:19;;;;;;;18.00;4.50;;;;;;;18.18;100.00;101811.94;5075707;28;20100;-65
2023/08/17 06:24:44;;;;;;;15.07;4.72;;;;;;;18.12;100.00;101815.59;5075115;28;20024;-67
2023/08/17 06:27:14;;;;;;;14.25;4.63;;;;;;;18.08;100.00;101812.03;5075670;28;20512;-67
2023/08/17 06:29:39;;;;;;;15.82;4.55;;;;;;;18.06;100.00;101811.19;5075639;28;20028;-66
2023/08/17 06:32:05;;;;;;;14.43;4.63;;;;;;;18.07;100.00;101810.28;5075202;28;20037;-66
2023/08/17 06:34:30;;;;;;;16.02;4.80;;;;;;;18.00;100.00;101810.34;5075585;28;20110;-66
2023/08/17 06:36:58;;;;;;;18.90;5.10;;;;;;;17.96;100.00;101805.97;5075095;28;20028;-66
2023/08/17 06:39:23;;;;;;;16.23;4.97;;;;;;;17.99;100.00;101808.59;5075022;28;20471;-66
2023/08/17 06:41:49;;;;;;;15.10;4.70;;;;;;;18.04;100.00;101814.78;5075266;28;20052;-65
2023/08/17 06:44:14;;;;;;;20.33;5.28;;;;;;;18.19;100.00;101813.69;5075467;28;20044;-66
2023/08/17 06:46:39;;;;;;;17.58;4.95;;;;;;;18.27;100.00;101822.53;5075170;28;20115;-66
2023/08/17 06:49:05;;;;;;;16.80;5.30;;;;;;;18.43;100.00;101816.06;5074833;28;20475;-66
2023/08/17 06:51:30;;;;;;;16.30;5.20;;;;;;;18.53;100.00;101818.66;5075094;28;20472;-66
2023/08/17 06:53:55;;;;;;;17.60;5.30;;;;;;;18.53;100.00;101822.19;5074904;28;20056;-66
2023/08/17 06:56:22;;;;;;;19.85;5.05;;;;;;;18.64;100.00;101814.03;5074881;28;20505;-67
2023/08/17 06:58:48;;;;;;;16.33;4.90;;;;;;;18.85;100.00;101812.81;5075179;28;20029;-66
2023/08/17 07:01:14;;;;;;;17.48;4.90;;;;;;;19.07;100.00;101815.22;5073105;28;20479;-66
2023/08/17 07:03:39;;;;;;;16.98;5.20;;;;;;;19.30;100.00;101822.88;5074682;28;20025;-67
2023/08/17 07:06:05;;;;;;;18.58;5.32;;;;;;;19.43;100.00;101815.53;5074903;28;20032;-68
2023/08/17 07:08:30;;;;;;;15.88;5.38;;;;;;;19.51;100.00;101811.78;5073553;28;20457;-65
2023/08/17 07:10:56;;;;;;;18.17;5.47;;;;;;;19.51;100.00;101808.22;5074653;28;20024;-64
2023/08/17 07:13:21;;;;;;;18.63;5.50;;;;;;;19.48;100.00;101816.31;5074475;28;20365;-65
2023/08/17 07:15:46;;;;;;;17.10;5.00;;;;;;;19.43;100.00;101818.19;5074773;28;20033;-66
2023/08/17 07:18:12;;;;;;;17.38;5.18;;;;;;;19.48;100.00;101814.53;5074678;28;20451;-66
2023/08/17 07:20:37;;;;;;;16.77;4.97;;;;;;;19.44;100.00;101815.50;5066634;28;20033;-66
2023/08/17 07:23:03;;;;;;;17.30;5.07;;;;;;;19.43;100.00;101819.06;5086591;28;20028;-66
2023/08/17 07:25:28;;;;;;;15.48;4.90;;;;;;;19.33;100.00;101818.34;5074121;28;20490;-66
2023/08/17 07:27:53;;;;;;;17.55;5.18;;;;;;;19.35;100.00;101818.31;5089585;28;20391;-66
2023/08/17 07:30:19;;;;;;;19.13;5.38;;;;;;;19.49;100.00;101818.09;5073980;28;20111;-66
2023/08/17 07:32:44;;;;;;;17.90;5.28;;;;;;;19.62;100.00;101816.09;5070226;28;20489;-66
2023/08/17 07:35:10;;;;;;;18.83;5.15;;;;;;;19.64;100.00;101808.88;5070096;28;20035;-66
2023/08/17 07:37:35;;;;;;;15.27;5.00;;;;;;;19.75;100.00;101814.94;5073961;28;20426;-66
2023/08/17 07:40:04;;;;;;;15.98;4.80;;;;;;;19.90;100.00;101813.78;5074197;28;20036;-66
2023/08/17 07:42:30;;;;;;;19.05;5.07;;;;;;;20.09;100.00;101816.13;5070605;28;20020;-66
2023/08/17 07:44:55;;;;;;;17.10;5.00;;;;;;;20.24;100.00;101812.22;5074040;28;20403;-66
2023/08/17 07:47:21;;;;;;;15.52;4.90;;;;;;;20.44;100.00;101817.19;5089795;28;20025;-66
2023/08/17 07:49:46;;;;;;;16.48;4.88;;;;;;;20.47;100.00;101817.13;5073963;28;20056;-67
2023/08/17 07:52:11;;;;;;;16.77;5.10;;;;;;;20.58;100.00;101819.59;5072233;28;20110;-66
2023/08/17 07:54:37;;;;;;;17.05;4.63;;;;;;;20.59;100.00;101818.66;5074040;28;20078;-67
2023/08/17 07:57:03;;;;;;;15.95;4.90;;;;;;;20.59;100.00;101824.00;5073881;28;20029;-67
2023/08/17 07:59:29;;;;;;;20.20;5.55;;;;;;;20.49;100.00;101828.69;5072875;28;20024;-68
2023/08/17 08:01:54;;;;;;;16.58;5.00;;;;;;;20.59;100.00;101830.28;5073251;28;20039;-67
2023/08/17 08:04:19;;;;;;;16.42;5.20;;;;;;;20.66;100.00;101831.03;5073579;28;20104;-67
2023/08/17 08:06:46;;;;;;;16.67;5.10;;;;;;;20.64;100.00;101832.88;5073685;28;20036;-67
2023/08/17 08:09:12;;;;;;;17.30;5.00;;;;;;;20.62;100.00;101821.25;5073480;28;20039;-68
2023/08/17 08:11:37;;;;;;;17.35;4.97;;;;;;;20.73;100.00;101832.69;5073495;28;20024;-68
2023/08/17 08:14:03;;;;;;;18.00;4.85;;;;;;;20.88;100.00;101829.66;5072856;28;20055;-67
2023/08/17 08:16:31;;;;;;;15.60;4.60;;;;;;;21.11;100.00;101821.97;5073363;28;20020;-68
2023/08/17 08:18:56;;;;;;;17.00;4.60;;;;;;;21.24;100.00;101823.44;5073240;28;20035;-69
2023/08/17 08:21:22;;;;;;;17.60;4.97;;;;;;;21.17;100.00;101822.72;5073436;28;20036;-67
2023/08/17 08:23:47;;;;;;;15.45;4.88;;;;;;;21.05;100.00;101820.31;5071846;28;20142;-67
2023/08/17 08:26:13;;;;;;;14.90;4.65;;;;;;;21.06;100.00;101819.41;5073292;28;20024;-67
2023/08/17 08:28:39;;;;;;;17.73;5.00;;;;;;;20.95;100.00;101824.13;5073639;28;20068;-67
2023/08/17 08:31:04;;;;;;;15.32;4.60;;;;;;;20.91;100.00;101831.38;5073291;28;20383;-67
2023/08/17 08:33:30;;;;;;;17.83;4.90;;;;;;;20.94;100.00;101825.03;5073524;28;20025;-66
2023/08/17 08:35:55;;;;;;;16.52;4.82;;;;;;;20.71;100.00;101831.84;5073352;28;20484;-66
2023/08/17 08:38:21;;;;;;;17.88;4.80;;;;;;;20.64;100.00;101830.19;5073171;28;20067;-66
2023/08/17 08:40:47;;;;;;;18.92;5.25;;;;;;;20.49;100.00;101828.69;5073017;28;20086;-66
2023/08/17 08:43:16;;;;;;;15.68;5.00;;;;;;;20.38;100.00;101832.50;5073223;28;20035;-66
2023/08/17 08:45:44;;;;;;;17.73;5.00;;;;;;;20.32;100.00;101831.75;5073245;28;20399;-66
2023/08/17 08:48:11;;;;;;;17.00;5.10;;;;;;;20.10;100.00;101823.25;5072924;28;20020;-66
2023/08/17 08:50:39;;;;;;;19.10;5.53;;;;;;;20.00;100.00;101827.91;5073488;28;20127;-66
2023/08/17 08:53:17;;;;;;;16.95;5.47;;;;;;;19.98;100.00;101819.00;5072842;28;20175;-66
2023/08/17 08:55:52;;;;;;;17.80;5.60;;;;;;;19.98;100.00;101817.22;5073271;28;20418;-66
2023/08/17 08:58:18;;;;;;;17.23;5.18;;;;;;;20.06;100.00;101813.50;5068967;28;20032;-68
2023/08/17 09:00:47;;;;;;;19.00;5.47;;;;;;;20.12;100.00;101810.69;5073138;28;20471;-67
2023/08/17 09:03:13;;;;;;;17.27;5.47;;;;;;;20.18;100.00;101813.22;5072795;28;20028;-66
2023/08/17 09:05:40;;;;;;;18.35;5.72;;;;;;;20.15;100.00;101808.84;5072779;28;20043;-66
2023/08/17 09:08:09;;;;;;;18.15;5.88;;;;;;;20.09;100.00;101808.06;5072974;28;20036;-66
2023/08/17 09:10:35;;;;;;;18.35;5.88;;;;;;;20.12;100.00;101803.50;5072696;28;20468;-66
2023/08/17 09:13:00;;;;;;;18.17;5.80;;;;;;;20.12;100.00;101806.19;5072651;28;20036;-66
2023/08/17 09:15:25;;;;;;;18.13;5.97;;;;;;;20.09;100.00;101803.56;5072803;28;20107;-67
2023/08/17 09:17:51;;;;;;;20.40;6.18;;;;;;;19.98;100.00;101806.47;5072621;28;20079;-66
2023/08/17 09:20:38;;;;;;;20.50;6.65;;;;;;;19.92;100.00;101811.97;5072624;28;20064;-67
2023/08/17 09:23:04;;;;;;;20.00;6.47;;;;;;;19.80;100.00;101802.34;5070123;28;20083;-66
2023/08/17 09:25:31;;;;;;;20.38;7.07;;;;;;;19.62;100.00;101800.00;5073058;28;20116;-67
2023/08/17 09:27:57;;;;;;;21.70;6.93;;;;;;;19.63;100.00;101816.06;5072483;28;20028;-66
2023/08/17 09:30:22;;;;;;;20.05;6.65;;;;;;;19.51;100.00;101806.44;5072579;28;20021;-67
2023/08/17 09:32:49;;;;;;;21.40;7.70;;;;;;;19.41;100.00;101810.19;5072747;28;20033;-67
2023/08/17 09:35:15;;;;;;;20.95;7.40;;;;;;;19.41;100.00;101806.59;5072476;28;20024;-67
2023/08/17 09:37:40;;;;;;;21.98;7.10;;;;;;;19.56;100.00;101797.44;5072098;28;20039;-67
2023/08/17 09:40:06;;;;;;;20.40;7.25;;;;;;;19.78;100.00;101804.19;5056492;28;20036;-68
2023/08/17 09:42:35;;;;;;;19.88;7.43;;;;;;;20.06;100.00;101808.13;5072160;28;20059;-67
2023/08/17 09:45:02;;;;;;;21.42;7.38;;;;;;;20.33;100.00;101802.19;5071914;28;20029;-68
2023/08/17 09:47:29;;;;;;;19.52;7.20;;;;;;;20.54;100.00;101799.94;5072086;28;20067;-67
2023/08/17 09:49:54;;;;;;;22.15;7.90;;;;;;;20.61;100.00;101800.72;5072224;28;20487;-68
2023/08/17 09:52:22;;;;;;;22.63;8.05;;;;;;;20.49;100.00;101808.13;5073671;28;20060;-68
2023/08/17 09:54:47;;;;;;;23.60;7.97;;;;;;;20.47;100.00;101804.56;5075264;28;20021;-67
2023/08/17 09:57:14;;;;;;;22.05;7.53;;;;;;;20.48;100.00;101798.28;5076275;28;20154;-67
2023/08/17 09:59:40;;;;;;;22.27;8.25;;;;;;;20.27;100.00;101796.06;5076183;28;20025;-68
2023/08/17 10:02:18;;;;;;;23.35;8.45;;;;;;;20.08;100.00;101801.81;5076366;28;20488;-68
2023/08/17 10:04:48;;;;;;;21.65;7.90;;;;;;;19.99;100.00;101799.31;5073824;28;20367;-67
2023/08/17 10:07:14;;;;;;;20.90;7.90;;;;;;;20.00;100.00;101793.03;5076327;28;20379;-68
2023/08/17 10:09:45;;;;;;;21.77;7.90;;;;;;;20.06;100.00;101787.53;5076218;28;20103;-68
2023/08/17 10:12:15;;;;;;;20.60;8.20;;;;;;;20.17;100.00;101781.97;5076077;28;20466;-69
2023/08/17 10:14:49;;;;;;;22.10;8.05;;;;;;;20.14;100.00;101780.22;5075862;28;20017;-67
2023/08/17 10:17:21;;;;;;;21.95;8.35;;;;;;;20.25;100.00;101784.47;5075800;28;20031;-67
2023/08/17 10:19:52;;;;;;;21.92;8.10;;;;;;;20.25;100.00;101785.34;5075753;28;20021;-67
2023/08/17 10:22:29;;;;;;;20.73;7.85;;;;;;;20.35;100.00;101772.63;5075978;28;20475;-67
2023/08/17 10:24:57;;;;;;;20.30;7.93;;;;;;;20.41;100.00;101775.16;5075690;28;20036;-67
2023/08/17 10:27:23;;;;;;;20.92;7.97;;;;;;;20.49;100.00;101777.66;5075632;28;20055;-69
2023/08/17 10:29:51;;;;;;;21.92;8.32;;;;;;;20.55;100.00;101775.75;5075861;28;20029;-68
2023/08/17 10:32:16;;;;;;;21.13;8.15;;;;;;;20.48;100.00;101773.25;5075674;28;20033;-67
2023/08/17 10:34:42;;;;;;;20.52;8.02;;;;;;;20.41;100.00;101777.84;5075614;28;20070;-68
2023/08/17 10:37:08;;;;;;;20.98;8.30;;;;;;;20.42;100.00;101768.00;5075613;28;20029;-68
2023/08/17 10:39:34;;;;;;;21.63;8.57;;;;;;;20.36;100.00;101771.72;5074192;28;20050;-67
2023/08/17 10:42:00;;;;;;;20.80;8.07;;;;;;;20.24;100.00;101769.28;5074288;28;20063;-67
2023/08/17 10:44:45;;;;;;;21.40;7.97;;;;;;;20.26;100.00;101780.88;5075508;28;20063;-69
2023/08/17 10:47:22;;;;;;;21.48;8.15;;;;;;;20.34;100.00;101781.59;5072320;28;20029;-69
2023/08/17 10:49:58;;;;;;;20.92;8.52;;;;;;;20.33;100.00;101780.72;5075533;28;20120;-67
2023/08/17 10:52:35;;;;;;;22.23;9.30;;;;;;;20.31;100.00;101777.16;5074893;28;20080;-69
2023/08/17 10:55:05;;;;;;;21.92;8.52;;;;;;;20.41;100.00;101777.84;5075221;28;20029;-67
2023/08/17 10:57:34;;;;;;;23.83;9.02;;;;;;;20.60;100.00;101780.13;5075137;28;20422;-67
2023/08/17 11:00:07;;;;;;;21.35;8.80;;;;;;;20.72;100.00;101771.81;5075285;28;20064;-67
2023/08/17 11:02:33;;;;;;;22.27;8.93;;;;;;;20.76;100.00;101770.81;5074931;28;20024;-67
2023/08/17 11:04:59;;;;;;;20.88;9.07;;;;;;;20.79;100.00;101764.50;5073884;28;20086;-68
2023/08/17 11:07:25;;;;;;;23.30;9.07;;;;;;;20.84;100.00;101770.66;5075123;28;20085;-67